createdAt,value
2019-06-01T00:00:12.365Z,102213.71
2019-06-01T00:02:58.448Z,102216.25
2019-06-01T00:05:42.547Z,102212.56
2019-06-01T00:08:27.335Z,102219.83
2019-06-01T00:11:11.236Z,102232.31
2019-06-01T00:13:55.227Z,102219.75
2019-06-01T00:16:39.930Z,102226.20
2019-06-01T00:19:24.579Z,102215.88
2019-06-01T00:22:08.731Z,102222.31
2019-06-01T00:24:52.964Z,102207.36
2019-06-01T00:27:37.248Z,102221.23
2019-06-01T00:30:26.931Z,102198.33
2019-06-01T00:33:07.005Z,102207.95
2019-06-01T00:35:51.621Z,102210.19
2019-06-01T00:38:35.801Z,102204.70
2019-06-01T00:41:19.903Z,102210.70
2019-06-01T00:44:04.459Z,102209.43
2019-06-01T00:46:48.712Z,102207.11
2019-06-01T00:49:33.355Z,102199.84
2019-06-01T00:52:17.689Z,102194.77
2019-06-01T00:55:02.411Z,102201.60
2019-06-01T00:57:47.344Z,102198.87
2019-06-01T01:00:43.147Z,102203.07
2019-06-01T01:03:17.651Z,102189.73
2019-06-01T01:06:01.244Z,102188.71
2019-06-01T01:08:47.087Z,102202.82
2019-06-01T01:11:31.818Z,102194.12
2019-06-01T01:14:15.763Z,102204.19
2019-06-01T01:17:00.225Z,102191.55
2019-06-01T01:19:44.161Z,102198.69
2019-06-01T01:22:28.396Z,102198.61
2019-06-01T01:25:12.314Z,102184.58
2019-06-01T01:27:57.044Z,102188.27
2019-06-01T01:30:40.799Z,102196.81
2019-06-01T01:33:24.671Z,102184.09
2019-06-01T01:36:09.134Z,102192.70
2019-06-01T01:38:54.234Z,102193.72
2019-06-01T01:41:39.503Z,102185.22
2019-06-01T01:44:24.779Z,102170.16
2019-06-01T01:47:09.668Z,102170.48
2019-06-01T01:49:54.105Z,102185.93
2019-06-01T01:52:38.650Z,102170.98
2019-06-01T01:55:23.123Z,102168.81
2019-06-01T01:58:07.807Z,102171.28
2019-06-01T02:00:54.059Z,102171.11
2019-06-01T02:03:37.925Z,102160.42
2019-06-01T02:06:21.608Z,102158.61
2019-06-01T02:09:07.233Z,102158.33
2019-06-01T02:11:51.379Z,102153.65
2019-06-01T02:14:35.201Z,102160.33
2019-06-01T02:17:19.928Z,102166.89
2019-06-01T02:20:03.886Z,102157.48
2019-06-01T02:22:47.774Z,102147.59
2019-06-01T02:25:32.373Z,102159.55
2019-06-01T02:28:16.724Z,102143.64
2019-06-01T02:31:02.063Z,102142.61
2019-06-01T02:33:46.835Z,102139.55
2019-06-01T02:36:30.836Z,102140.19
2019-06-01T02:39:15.550Z,102150.69
2019-06-01T02:42:01.061Z,102145.76
2019-06-01T02:44:44.963Z,102141.87
2019-06-01T02:47:28.614Z,102142.20
2019-06-01T02:50:12.185Z,102146.44
2019-06-01T02:52:57.272Z,102141.03
2019-06-01T02:55:41.463Z,102155.08
2019-06-01T02:58:25.891Z,102152.63
2019-06-01T03:01:28.696Z,102144.11
2019-06-01T03:04:12.419Z,102158.06
2019-06-01T03:06:57.272Z,102154.94
2019-06-01T03:09:41.231Z,102149.70
2019-06-01T03:12:25.027Z,102159.51
2019-06-01T03:15:09.521Z,102147.25
2019-06-01T03:17:53.312Z,102148.03
2019-06-01T03:20:37.087Z,102145.36
2019-06-01T03:23:21.079Z,102159.48
2019-06-01T03:26:06.199Z,102155.81
2019-06-01T03:28:51.720Z,102148.13
2019-06-01T03:31:36.116Z,102144.20
2019-06-01T03:34:19.686Z,102149.13
2019-06-01T03:37:04.953Z,102134.80
2019-06-01T03:39:49.386Z,102151.45
2019-06-01T03:42:33.942Z,102136.67
2019-06-01T03:45:18.286Z,102131.75
2019-06-01T03:48:02.599Z,102125.66
2019-06-01T03:50:46.878Z,102130.94
2019-06-01T03:53:30.690Z,102124.39
2019-06-01T03:56:14.965Z,102141.03
2019-06-01T03:58:58.861Z,102132.74
2019-06-01T04:01:43.563Z,102124.49
2019-06-01T04:04:28.105Z,102141.36
2019-06-01T04:07:13.268Z,102121.91
2019-06-01T04:09:56.885Z,102122.98
2019-06-01T04:12:40.911Z,102133.29
2019-06-01T04:15:25.789Z,102132.11
2019-06-01T04:18:10.347Z,102141.45
2019-06-01T04:20:54.626Z,102141.90
2019-06-01T04:23:39.029Z,102133.23
2019-06-01T04:26:23.628Z,102131.39
2019-06-01T04:29:08.266Z,102133.36
2019-06-01T04:31:53.239Z,102140.77
2019-06-01T04:34:37.582Z,102137.95
2019-06-01T04:37:21.101Z,102141.80
2019-06-01T04:40:05.330Z,102143.78
2019-06-01T04:42:49.581Z,102135.94
2019-06-01T04:45:34.890Z,102133.30
2019-06-01T04:48:19.325Z,102134.25
2019-06-01T04:51:03.056Z,102130.28
2019-06-01T04:53:46.106Z,102138.98
2019-06-01T04:56:30.603Z,102127.32
2019-06-01T04:59:15.372Z,102141.60
2019-06-01T05:01:59.846Z,102143.04
2019-06-01T05:04:43.895Z,102132.82
2019-06-01T05:07:28.463Z,102132.66
2019-06-01T05:10:14.246Z,102120.19
2019-06-01T05:12:59.053Z,102134.84
2019-06-01T05:15:43.544Z,102123.27
2019-06-01T05:18:27.142Z,102129.70
2019-06-01T05:21:10.765Z,102125.19
2019-06-01T05:23:54.526Z,102125.84
2019-06-01T05:26:39.014Z,102122.88
2019-06-01T05:29:23.324Z,102132.30
2019-06-01T05:32:06.984Z,102126.39
2019-06-01T05:34:50.907Z,102124.47
2019-06-01T05:37:34.864Z,102121.05
2019-06-01T05:40:19.758Z,102126.05
2019-06-01T05:43:04.117Z,102135.19
2019-06-01T05:45:48.359Z,102118.62
2019-06-01T05:48:32.718Z,102131.64
2019-06-01T05:51:18.571Z,102115.34
2019-06-01T05:54:02.988Z,102113.97
2019-06-01T05:56:47.326Z,102110.84
2019-06-01T05:59:31.852Z,102113.03
2019-06-01T06:02:16.052Z,102105.03
2019-06-01T06:05:00.271Z,102092.01
2019-06-01T06:07:43.868Z,102087.61
2019-06-01T06:10:28.158Z,102092.65
2019-06-01T06:13:11.688Z,102081.25
2019-06-01T06:15:56.043Z,102068.48
2019-06-01T06:18:40.102Z,102082.59
2019-06-01T06:21:24.541Z,102075.11
2019-06-01T06:24:08.703Z,102062.59
2019-06-01T06:26:52.747Z,102071.80
2019-06-01T06:29:37.753Z,102060.97
2019-06-01T06:32:23.352Z,102083.56
2019-06-01T06:35:07.964Z,102066.77
2019-06-01T06:37:52.925Z,102081.44
2019-06-01T06:40:37.324Z,102091.46
2019-06-01T06:43:29.711Z,102068.09
2019-06-01T06:46:06.741Z,102073.06
2019-06-01T06:48:51.355Z,102075.45
2019-06-01T06:51:35.211Z,102070.72
2019-06-01T06:54:19.865Z,102075.11
2019-06-01T06:57:04.721Z,102076.27
2019-06-01T06:59:49.052Z,102092.33
2019-06-01T07:02:32.778Z,102076.59
2019-06-01T07:05:17.232Z,102073.51
2019-06-01T07:08:01.195Z,102080.39
2019-06-01T07:10:45.228Z,102083.40
2019-06-01T07:13:28.990Z,102081.20
2019-06-01T07:16:13.573Z,102071.61
2019-06-01T07:18:57.354Z,102091.22
2019-06-01T07:21:41.388Z,102082.72
2019-06-01T07:24:26.038Z,102090.84
2019-06-01T07:27:11.258Z,102090.41
2019-06-01T07:29:55.505Z,102082.56
2019-06-01T07:32:39.662Z,102099.95
2019-06-01T07:35:24.974Z,102092.39
2019-06-01T07:38:09.071Z,102078.97
2019-06-01T07:40:52.940Z,102088.03
2019-06-01T07:43:36.545Z,102076.50
2019-06-01T07:46:20.841Z,102089.72
2019-06-01T07:49:06.373Z,102095.25
2019-06-01T07:51:50.756Z,102077.97
2019-06-01T07:54:34.462Z,102063.30
2019-06-01T07:57:18.583Z,102074.45
2019-06-01T08:00:03.913Z,102085.25
2019-06-01T08:02:50.277Z,102078.80
2019-06-01T08:05:34.569Z,102063.83
2019-06-01T08:08:18.048Z,102072.38
2019-06-01T08:10:50.654Z,102087.22
2019-06-01T08:13:35.835Z,102073.57
2019-06-01T08:16:21.434Z,102075.31
2019-06-01T08:19:05.343Z,102065.79
2019-06-01T08:21:49.759Z,102068.52
2019-06-01T08:24:33.534Z,102083.22
2019-06-01T08:27:17.618Z,102073.20
2019-06-01T08:30:01.871Z,102083.93
2019-06-01T08:32:46.049Z,102070.13
2019-06-01T08:35:31.242Z,102064.50
2019-06-01T08:38:15.327Z,102083.02
2019-06-01T08:40:59.830Z,102057.20
2019-06-01T08:43:43.479Z,102077.81
2019-06-01T08:46:27.709Z,102070.47
2019-06-01T08:49:12.941Z,102081.61
2019-06-01T08:51:56.749Z,102078.69
2019-06-01T08:54:40.573Z,102071.81
2019-06-01T08:57:24.363Z,102080.98
2019-06-01T08:59:56.663Z,102092.67
2019-06-01T09:02:40.298Z,102076.59
2019-06-01T09:05:26.205Z,102070.52
2019-06-01T09:08:09.505Z,102073.19
2019-06-01T09:10:53.935Z,102069.80
2019-06-01T09:13:37.473Z,102075.83
2019-06-01T09:16:25.374Z,102067.53
2019-06-01T09:19:11.324Z,102054.17
2019-06-01T09:21:54.573Z,102060.97
2019-06-01T09:24:38.497Z,102056.41
2019-06-01T09:27:22.399Z,102060.70
2019-06-01T09:30:06.888Z,102065.92
2019-06-01T09:32:51.194Z,102064.91
2019-06-01T09:35:53.687Z,102058.65
2019-06-01T09:38:20.839Z,102060.73
2019-06-01T09:41:04.650Z,102061.97
2019-06-01T09:43:48.639Z,102050.05
2019-06-01T09:46:34.005Z,102048.53
2019-06-01T09:49:18.853Z,102061.59
2019-06-01T09:52:03.124Z,102058.20
2019-06-01T09:54:46.877Z,102053.89
2019-06-01T09:57:31.991Z,102046.20
2019-06-01T10:00:15.784Z,102051.61
2019-06-01T10:02:59.986Z,102052.15
2019-06-01T10:05:58.431Z,102055.99
2019-06-01T10:08:32.410Z,102062.94
2019-06-01T10:11:16.037Z,102055.02
2019-06-01T10:13:59.790Z,102050.30
2019-06-01T10:16:43.445Z,102054.48
2019-06-01T10:19:27.692Z,102054.39
2019-06-01T10:22:12.449Z,102047.73
2019-06-01T10:24:56.298Z,102048.02
2019-06-01T10:27:40.584Z,102045.01
2019-06-01T10:30:24.110Z,102028.44
2019-06-01T10:33:07.827Z,102025.89
2019-06-01T10:35:51.629Z,102040.50
2019-06-01T10:38:35.477Z,102045.91
2019-06-01T10:41:19.984Z,102041.27
2019-06-01T10:44:04.294Z,102023.56
2019-06-01T10:46:48.004Z,102022.08
2019-06-01T10:49:31.851Z,102025.88
2019-06-01T10:52:15.655Z,102022.34
2019-06-01T10:54:59.988Z,102024.48
2019-06-01T10:57:44.173Z,102025.66
2019-06-01T11:00:39.694Z,102038.18
2019-06-01T11:03:14.552Z,102028.48
2019-06-01T11:05:59.897Z,102035.05
2019-06-01T11:08:43.622Z,102029.70
2019-06-01T11:11:29.745Z,102023.84
2019-06-01T11:14:14.058Z,102029.45
2019-06-01T11:16:58.414Z,102036.66
2019-06-01T11:19:43.694Z,102015.61
2019-06-01T11:22:28.134Z,102028.34
2019-06-01T11:25:11.795Z,102028.52
2019-06-01T11:27:56.019Z,102012.42
2019-06-01T11:30:40.217Z,102016.80
2019-06-01T11:33:23.827Z,102012.83
2019-06-01T11:36:08.438Z,102015.09
2019-06-01T11:38:53.155Z,102010.22
2019-06-01T11:41:25.885Z,102019.83
2019-06-01T11:44:10.271Z,102014.31
2019-06-01T11:46:53.983Z,102012.64
2019-06-01T11:49:38.676Z,102018.78
2019-06-01T11:52:23.140Z,102008.44
2019-06-01T11:55:07.518Z,102017.25
2019-06-01T11:57:51.307Z,102021.33
2019-06-01T12:00:35.780Z,102017.35
2019-06-01T12:03:19.996Z,102030.06
2019-06-01T12:06:03.612Z,102013.14
2019-06-01T12:08:47.285Z,102000.89
2019-06-01T12:11:31.456Z,102012.17
2019-06-01T12:14:15.930Z,102009.57
2019-06-01T12:16:59.131Z,102021.34
2019-06-01T12:19:44.769Z,102014.76
2019-06-01T12:22:30.529Z,102003.94
2019-06-01T12:25:14.464Z,101992.44
2019-06-01T12:27:58.943Z,102004.50
2019-06-01T12:30:43.739Z,101993.27
2019-06-01T12:33:27.850Z,101987.67
2019-06-01T12:36:00.133Z,101996.02
2019-06-01T12:38:52.178Z,102008.31
2019-06-01T12:41:36.718Z,102003.78
2019-06-01T12:44:20.419Z,101996.50
2019-06-01T12:47:04.657Z,102005.80
2019-06-01T12:49:48.940Z,102001.70
2019-06-01T12:52:22.577Z,101993.61
2019-06-01T12:55:06.788Z,102007.86
2019-06-01T12:57:51.346Z,101994.42
2019-06-01T13:00:35.536Z,101979.12
2019-06-01T13:03:19.515Z,101982.19
2019-06-01T13:06:04.008Z,101984.08
2019-06-01T13:08:48.870Z,101993.70
2019-06-01T13:11:22.618Z,101990.92
2019-06-01T13:14:07.071Z,101982.53
2019-06-01T13:17:05.954Z,101979.42
2019-06-01T13:19:36.216Z,101969.21
2019-06-01T13:22:20.070Z,101967.84
2019-06-01T13:25:04.625Z,101975.53
2019-06-01T13:27:49.052Z,101974.98
2019-06-01T13:30:34.589Z,101963.20
2019-06-01T13:33:18.834Z,101979.09
2019-06-01T13:36:04.220Z,101971.99
2019-06-01T13:38:48.798Z,101970.77
2019-06-01T13:41:32.221Z,101974.23
2019-06-01T13:44:16.160Z,101950.00
2019-06-01T13:47:00.166Z,101957.97
2019-06-01T13:49:46.852Z,101974.38
2019-06-01T13:52:32.292Z,101975.47
2019-06-01T13:55:16.627Z,101967.04
2019-06-01T13:58:01.023Z,101968.05
2019-06-01T14:00:46.215Z,101971.95
2019-06-01T14:03:29.957Z,101974.72
2019-06-01T14:06:13.580Z,101982.30
2019-06-01T14:08:57.659Z,101986.75
2019-06-01T14:11:41.736Z,101974.05
2019-06-01T14:14:26.501Z,101976.77
2019-06-01T14:17:10.804Z,101980.17
2019-06-01T14:19:55.885Z,101976.94
2019-06-01T14:22:40.306Z,101981.91
2019-06-01T14:25:24.455Z,101989.42
2019-06-01T14:28:08.668Z,102001.08
2019-06-01T14:30:54.282Z,102018.62
2019-06-01T14:33:38.781Z,102022.34
2019-06-01T14:36:23.114Z,102001.36
2019-06-01T14:39:08.342Z,102015.01
2019-06-01T14:41:53.490Z,102018.91
2019-06-01T14:44:37.315Z,102023.30
2019-06-01T14:47:21.196Z,102035.14
2019-06-01T14:50:05.252Z,102019.30
2019-06-01T14:52:49.947Z,102018.52
2019-06-01T14:55:34.352Z,102030.44
2019-06-01T14:58:18.461Z,102033.48
2019-06-01T15:01:02.557Z,102023.31
2019-06-01T15:03:48.134Z,102028.56
2019-06-01T15:06:33.020Z,102041.36
2019-06-01T15:09:19.463Z,102039.37
2019-06-01T15:12:02.072Z,102030.72
2019-06-01T15:14:48.446Z,102043.23
2019-06-01T15:17:32.912Z,102047.45
2019-06-01T15:20:17.529Z,102034.07
2019-06-01T15:23:03.600Z,102036.51
2019-06-01T15:25:47.430Z,102046.09
2019-06-01T15:28:31.524Z,102043.81
2019-06-01T15:31:15.556Z,102032.31
2019-06-01T15:33:59.821Z,102044.56
2019-06-01T15:36:44.463Z,102036.51
2019-06-01T15:39:28.683Z,102030.52
2019-06-01T15:42:12.410Z,102038.38
2019-06-01T15:44:57.245Z,102038.47
2019-06-01T15:47:41.692Z,102039.14
2019-06-01T15:50:25.909Z,102023.76
2019-06-01T15:52:59.331Z,102036.45
2019-06-01T15:55:43.695Z,102028.38
2019-06-01T15:58:27.581Z,102021.25
2019-06-01T16:01:12.125Z,102028.09
2019-06-01T16:03:57.329Z,102038.77
2019-06-01T16:06:41.131Z,102026.26
2019-06-01T16:09:41.581Z,102024.88
2019-06-01T16:12:10.834Z,102039.02
2019-06-01T16:14:55.562Z,102021.16
2019-06-01T16:17:39.914Z,102030.55
2019-06-01T16:20:23.609Z,102043.48
2019-06-01T16:23:07.663Z,102034.95
2019-06-01T16:26:04.874Z,102039.27
2019-06-01T16:28:37.822Z,102027.08
2019-06-01T16:31:22.146Z,102038.55
2019-06-01T16:33:56.474Z,102043.45
2019-06-01T16:36:40.630Z,102049.18
2019-06-01T16:39:25.015Z,102040.84
2019-06-01T16:42:08.738Z,102044.64
2019-06-01T16:44:52.921Z,102044.06
2019-06-01T16:47:37.230Z,102052.11
2019-06-01T16:50:20.849Z,102051.91
2019-06-01T16:52:53.768Z,102053.45
2019-06-01T16:55:37.675Z,102044.19
2019-06-01T16:58:12.194Z,102050.24
2019-06-01T17:00:56.399Z,102045.47
2019-06-01T17:03:40.516Z,102033.45
2019-06-01T17:06:24.960Z,102037.82
2019-06-01T17:09:09.082Z,102049.50
2019-06-01T17:11:53.245Z,102052.11
2019-06-01T17:15:07.146Z,102051.33
2019-06-01T17:18:05.059Z,102041.78
2019-06-01T17:20:47.540Z,102047.36
2019-06-01T17:23:33.155Z,102048.56
2019-06-01T17:26:17.183Z,102061.77
2019-06-01T17:29:02.108Z,102040.16
2019-06-01T17:31:54.353Z,102045.84
2019-06-01T17:34:31.805Z,102055.15
2019-06-01T17:37:16.217Z,102043.19
2019-06-01T17:40:00.058Z,102037.57
2019-06-01T17:42:43.867Z,102039.89
2019-06-01T17:45:28.286Z,102032.62
2019-06-01T17:48:25.064Z,102044.05
2019-06-01T17:50:58.240Z,102038.52
2019-06-01T17:53:42.690Z,102049.59
2019-06-01T17:56:26.981Z,102048.77
2019-06-01T17:59:11.569Z,102039.34
2019-06-01T18:01:56.158Z,102035.34
2019-06-01T18:04:40.845Z,102040.33
2019-06-01T18:07:24.441Z,102040.52
2019-06-01T18:10:10.179Z,102050.34
2019-06-01T18:12:54.160Z,102047.02
2019-06-01T18:15:38.883Z,102043.94
2019-06-01T18:18:22.684Z,102047.55
2019-06-01T18:21:06.775Z,102045.58
2019-06-01T18:23:51.374Z,102050.50
2019-06-01T18:26:35.949Z,102036.37
2019-06-01T18:29:20.394Z,102047.98
2019-06-01T18:32:05.761Z,102041.73
2019-06-01T18:34:49.654Z,102060.33
2019-06-01T18:37:33.696Z,102042.44
2019-06-01T18:40:18.677Z,102044.16
2019-06-01T18:43:05.919Z,102058.19
2019-06-01T18:45:49.975Z,102060.63
2019-06-01T18:48:34.439Z,102058.77
2019-06-01T18:51:18.878Z,102071.76
2019-06-01T18:54:04.234Z,102064.30
2019-06-01T18:56:48.414Z,102052.52
2019-06-01T18:59:32.933Z,102052.27
2019-06-01T19:02:17.702Z,102033.53
2019-06-01T19:05:02.105Z,102046.19
2019-06-01T19:07:46.555Z,102040.66
2019-06-01T19:10:30.687Z,102028.72
2019-06-01T19:13:14.371Z,102039.59
2019-06-01T19:15:58.699Z,102049.55
2019-06-01T19:18:43.212Z,102035.38
2019-06-01T19:21:27.278Z,102023.75
2019-06-01T19:24:12.708Z,102022.50
2019-06-01T19:26:57.149Z,102021.62
2019-06-01T19:29:29.893Z,102037.66
2019-06-01T19:32:15.024Z,102028.68
2019-06-01T19:34:59.961Z,102029.29
2019-06-01T19:37:43.630Z,102030.55
2019-06-01T19:40:32.100Z,102033.81
2019-06-01T19:43:16.063Z,102047.98
2019-06-01T19:45:59.635Z,102061.13
2019-06-01T19:48:43.512Z,102056.92
2019-06-01T19:51:27.373Z,102042.53
2019-06-01T19:54:11.074Z,102052.73
2019-06-01T19:56:55.428Z,102039.44
2019-06-01T19:59:39.949Z,102051.63
2019-06-01T20:02:33.294Z,102059.39
2019-06-01T20:04:58.815Z,102058.69
2019-06-01T20:07:31.716Z,102051.08
2019-06-01T20:10:23.477Z,102049.16
2019-06-01T20:12:55.885Z,102054.17
2019-06-01T20:15:28.301Z,102056.24
2019-06-01T20:18:01.421Z,102051.94
2019-06-01T20:20:33.757Z,102051.41
2019-06-01T20:23:06.126Z,102053.63
2019-06-01T20:25:38.514Z,102051.82
2019-06-01T20:28:11.631Z,102051.91
2019-06-01T20:30:44.106Z,102051.72
2019-06-01T20:33:16.436Z,102055.29
2019-06-01T20:35:48.711Z,102052.11
2019-06-01T20:38:23.034Z,102054.22
2019-06-01T20:40:55.121Z,102050.42
2019-06-01T20:43:27.405Z,102056.79
2019-06-01T20:46:00.102Z,102056.41
2019-06-01T20:48:32.451Z,102056.22
2019-06-01T20:51:04.739Z,102057.79
2019-06-01T20:53:37.059Z,102054.34
2019-06-01T20:56:09.354Z,102052.44
2019-06-01T20:58:41.716Z,102054.70
2019-06-01T21:01:14.084Z,102051.20
2019-06-01T21:03:46.384Z,102055.12
2019-06-01T21:06:20.416Z,102051.30
2019-06-01T21:08:52.701Z,102056.70
2019-06-01T21:11:25.043Z,102050.10
2019-06-01T21:13:57.427Z,102051.00
2019-06-01T21:16:30.100Z,102047.42
2019-06-01T21:19:02.749Z,102043.22
2019-06-01T21:21:35.074Z,102047.23
2019-06-01T21:24:07.343Z,102048.56
2019-06-01T21:26:39.703Z,102042.95
2019-06-01T21:29:12.062Z,102042.77
2019-06-01T21:31:45.039Z,102042.42
2019-06-01T21:34:17.653Z,102041.26
2019-06-01T21:36:49.917Z,102038.52
2019-06-01T21:39:23.481Z,102034.08
2019-06-01T21:41:56.235Z,102036.95
2019-06-01T21:44:29.526Z,102037.23
2019-06-01T21:47:02.983Z,102041.45
2019-06-01T21:49:35.359Z,102045.02
2019-06-01T21:52:07.648Z,102042.58
2019-06-01T21:54:40.086Z,102041.63
2019-06-01T21:57:12.365Z,102033.55
2019-06-01T21:59:44.685Z,102039.17
2019-06-01T22:02:17.104Z,102040.70
2019-06-01T22:04:49.402Z,102034.09
2019-06-01T22:07:23.003Z,102037.58
2019-06-01T22:09:55.597Z,102035.80
2019-06-01T22:12:27.949Z,102034.11
2019-06-01T22:15:00.205Z,102030.88
2019-06-01T22:17:33.339Z,102032.34
2019-06-01T22:20:06.626Z,102028.73
2019-06-01T22:22:38.994Z,102025.50
2019-06-01T22:25:12.920Z,102032.10
2019-06-01T22:27:45.234Z,102032.03
2019-06-01T22:30:18.412Z,102022.16
2019-06-01T22:32:50.748Z,102022.08
2019-06-01T22:35:23.027Z,102017.08
2019-06-01T22:37:55.438Z,102019.57
2019-06-01T22:40:29.373Z,102013.49
2019-06-01T22:43:01.749Z,102008.73
2019-06-01T22:45:34.843Z,102002.13
2019-06-01T22:48:07.128Z,102005.88
2019-06-01T22:50:39.516Z,101993.67
2019-06-01T22:53:11.811Z,101996.53
2019-06-01T22:55:44.154Z,102001.47
2019-06-01T22:58:17.434Z,101994.44
2019-06-01T23:00:50.187Z,101992.55
2019-06-01T23:03:23.526Z,101993.91
2019-06-01T23:05:56.332Z,101994.17
2019-06-01T23:08:29.496Z,101994.68
2019-06-01T23:11:02.419Z,101988.25
2019-06-01T23:13:34.988Z,101995.27
2019-06-01T23:16:07.288Z,101992.36
2019-06-01T23:18:39.641Z,101986.41
2019-06-01T23:21:11.993Z,101988.38
2019-06-01T23:23:44.332Z,101984.79
2019-06-01T23:26:16.668Z,101987.88
2019-06-01T23:28:48.959Z,101979.30
2019-06-01T23:31:22.238Z,101981.21
2019-06-01T23:33:54.710Z,101977.47
2019-06-01T23:36:27.074Z,101977.11
2019-06-01T23:38:59.636Z,101969.13
2019-06-01T23:41:32.934Z,101969.67
2019-06-01T23:44:11.648Z,101964.08
2019-06-01T23:46:40.541Z,101961.84
2019-06-01T23:49:12.871Z,101968.26
2019-06-01T23:51:45.458Z,101959.73
2019-06-01T23:54:17.739Z,101961.20
2019-06-01T23:56:50.879Z,101963.17
2019-06-01T23:59:24.057Z,101965.31
